createdAt,value
2022-11-30T00:01:23.629Z,23.30
2022-11-30T00:06:24.983Z,21.63
2022-11-30T00:11:25.574Z,27.85
2022-11-30T00:16:24.548Z,27.73
2022-11-30T00:21:24.857Z,26.52
2022-11-30T00:26:23.773Z,26.90
2022-11-30T00:31:22.715Z,28.52
2022-11-30T00:36:23.191Z,28.08
2022-11-30T00:41:23.378Z,31.98
2022-11-30T00:46:22.328Z,31.98
2022-11-30T00:51:21.196Z,29.42
2022-11-30T00:56:20.101Z,27.23
2022-11-30T01:01:20.495Z,25.45
2022-11-30T01:06:19.460Z,22.40
2022-11-30T01:11:22.458Z,23.52
2022-11-30T01:16:25.192Z,24.27
2022-11-30T01:21:26.161Z,24.97
2022-11-30T01:26:26.139Z,24.60
2022-11-30T01:31:26.678Z,24.50
2022-11-30T01:36:27.727Z,25.02
2022-11-30T01:41:29.491Z,26.95
2022-11-30T01:46:35.265Z,26.40
2022-11-30T01:51:38.174Z,25.73
2022-11-30T01:56:37.669Z,23.63
2022-11-30T02:01:38.157Z,29.73
2022-11-30T02:06:37.259Z,24.70
2022-11-30T02:11:36.136Z,28.30
2022-11-30T02:16:49.026Z,23.38
2022-11-30T02:21:54.833Z,21.93
2022-11-30T02:27:05.315Z,20.65
2022-11-30T02:32:11.037Z,23.20
2022-11-30T02:37:13.942Z,19.95
2022-11-30T02:42:14.455Z,19.90
2022-11-30T02:47:22.557Z,23.67
2022-11-30T02:52:25.415Z,20.30
2022-11-30T02:57:24.409Z,20.83
2022-11-30T03:02:25.370Z,17.77
2022-11-30T03:07:27.137Z,22.00
2022-11-30T03:12:26.130Z,19.83
2022-11-30T03:17:27.603Z,17.38
2022-11-30T03:22:26.920Z,20.33
2022-11-30T03:27:25.933Z,20.10
2022-11-30T03:32:28.925Z,18.58
2022-11-30T03:37:27.756Z,20.42
2022-11-30T03:42:26.815Z,19.33
2022-11-30T03:47:27.069Z,17.75
2022-11-30T03:52:25.974Z,19.75
2022-11-30T03:57:24.723Z,17.05
2022-11-30T04:02:23.564Z,16.00
2022-11-30T04:07:24.161Z,12.50
2022-11-30T04:12:23.139Z,13.85
2022-11-30T04:17:22.081Z,14.43
2022-11-30T04:22:21.032Z,13.55
2022-11-30T04:27:21.328Z,16.02
2022-11-30T04:32:20.246Z,16.25
2022-11-30T04:37:19.231Z,13.85
2022-11-30T04:42:18.247Z,15.25
2022-11-30T04:47:18.483Z,14.48
2022-11-30T04:52:17.456Z,15.68
2022-11-30T04:57:16.281Z,15.27
2022-11-30T05:02:15.387Z,17.10
2022-11-30T05:07:15.606Z,20.75
2022-11-30T05:12:14.545Z,21.73
2022-11-30T05:17:14.810Z,28.45
2022-11-30T05:22:13.658Z,18.65
2022-11-30T05:27:19.362Z,19.40
2022-11-30T05:32:21.183Z,14.10
2022-11-30T05:37:20.261Z,13.48
2022-11-30T05:42:20.620Z,15.18
2022-11-30T05:47:20.900Z,15.32
2022-11-30T05:52:20.047Z,17.02
2022-11-30T05:57:20.493Z,16.42
2022-11-30T06:02:23.729Z,14.48
2022-11-30T06:07:26.552Z,15.40
2022-11-30T06:12:26.840Z,16.88
2022-11-30T06:17:25.714Z,17.75
2022-11-30T06:22:24.532Z,17.48
2022-11-30T06:27:23.395Z,18.05
2022-11-30T06:32:23.618Z,17.63
2022-11-30T06:37:22.518Z,20.30
2022-11-30T06:42:21.521Z,20.45
2022-11-30T06:47:20.566Z,19.73
2022-11-30T06:52:21.022Z,18.05
2022-11-30T06:57:20.065Z,19.55
2022-11-30T07:02:19.217Z,18.85
2022-11-30T07:07:18.346Z,19.20
2022-11-30T07:12:19.091Z,17.13
2022-11-30T07:17:17.938Z,17.13
2022-11-30T07:22:17.265Z,16.10
2022-11-30T07:27:16.423Z,14.75
2022-11-30T07:32:19.219Z,17.17
2022-11-30T07:37:18.249Z,12.57
2022-11-30T07:42:18.797Z,13.57
2022-11-30T07:47:19.223Z,16.23
2022-11-30T07:52:18.232Z,15.05
2022-11-30T07:57:17.295Z,15.43
2022-11-30T08:02:16.752Z,13.95
2022-11-30T08:07:19.446Z,12.75
2022-11-30T08:12:19.077Z,16.00
2022-11-30T08:17:18.794Z,15.63
2022-11-30T08:22:19.529Z,14.70
2022-11-30T08:27:18.675Z,17.50
2022-11-30T08:32:17.790Z,15.52
2022-11-30T08:37:18.215Z,17.40
2022-11-30T08:42:17.341Z,16.17
2022-11-30T08:47:16.602Z,19.90
2022-11-30T08:52:17.429Z,14.75
2022-11-30T08:57:20.516Z,18.70
2022-11-30T09:02:20.886Z,22.33
2022-11-30T09:07:20.087Z,17.88
2022-11-30T09:12:20.686Z,19.48
2022-11-30T09:17:19.644Z,18.08
2022-11-30T09:22:18.652Z,14.43
2022-11-30T09:27:17.666Z,15.93
2022-11-30T09:32:18.116Z,16.23
2022-11-30T09:37:16.998Z,15.02
2022-11-30T09:42:27.529Z,15.23
2022-11-30T09:47:50.594Z,15.80
2022-11-30T09:52:53.431Z,13.90
2022-11-30T09:57:56.396Z,14.30
2022-11-30T10:02:59.025Z,12.13
2022-11-30T10:08:30.024Z,14.38
2022-11-30T10:13:45.449Z,14.63
2022-11-30T10:18:54.085Z,10.57
2022-11-30T10:24:07.247Z,12.75
2022-11-30T10:29:18.144Z,13.10
2022-11-30T10:34:24.508Z,13.48
2022-11-30T10:39:30.978Z,11.07
2022-11-30T10:44:33.445Z,13.10
2022-11-30T10:49:35.334Z,11.27
2022-11-30T10:54:37.531Z,14.02
2022-11-30T10:59:44.620Z,12.15
2022-11-30T11:04:45.196Z,11.70
2022-11-30T11:09:47.592Z,9.57
2022-11-30T11:14:46.832Z,11.02
2022-11-30T11:19:49.877Z,11.82
2022-11-30T11:24:50.752Z,10.23
2022-11-30T11:30:01.682Z,10.25
2022-11-30T11:35:02.293Z,13.98
2022-11-30T11:40:05.722Z,13.77
2022-11-30T11:45:06.040Z,10.98
2022-11-30T11:50:50.312Z,9.95
2022-11-30T11:55:46.533Z,13.70
2022-11-30T12:00:47.717Z,13.13
2022-11-30T12:05:52.849Z,15.32
2022-11-30T12:10:56.774Z,18.65
2022-11-30T12:16:08.205Z,13.70
2022-11-30T12:21:15.048Z,14.55
2022-11-30T12:26:24.311Z,11.88
2022-11-30T12:31:31.555Z,14.85
2022-11-30T12:36:47.523Z,21.48
2022-11-30T12:41:52.768Z,18.27
2022-11-30T12:47:00.056Z,15.90
2022-11-30T12:52:10.508Z,14.60
2022-11-30T12:57:18.033Z,14.25
2022-11-30T13:02:42.120Z,16.48
2022-11-30T13:07:47.705Z,18.60
2022-11-30T13:12:52.128Z,16.80
2022-11-30T13:17:52.056Z,17.33
2022-11-30T13:22:58.924Z,21.10
2022-11-30T13:28:13.149Z,22.27
2022-11-30T13:33:40.385Z,18.27
2022-11-30T13:38:40.991Z,17.30
2022-11-30T13:43:47.859Z,15.85
2022-11-30T13:48:49.703Z,19.42
2022-11-30T13:53:50.312Z,19.33
2022-11-30T13:59:23.722Z,20.92
2022-11-30T14:04:34.660Z,19.73
2022-11-30T14:10:01.091Z,21.27
2022-11-30T14:15:00.702Z,24.90
2022-11-30T14:20:09.362Z,20.55
2022-11-30T14:25:15.200Z,22.02
2022-11-30T14:30:19.131Z,22.35
2022-11-30T14:35:20.328Z,21.02
2022-11-30T14:40:25.081Z,17.60
2022-11-30T14:45:29.751Z,16.38
2022-11-30T14:50:28.695Z,14.57
2022-11-30T14:55:33.745Z,16.95
2022-11-30T15:00:39.037Z,18.05
2022-11-30T15:05:41.019Z,17.23
2022-11-30T15:10:46.490Z,15.35
2022-11-30T15:15:52.907Z,25.77
2022-11-30T15:20:57.478Z,18.88
2022-11-30T15:26:02.452Z,19.67
2022-11-30T15:31:06.069Z,18.38
2022-11-30T15:36:22.977Z,21.58
2022-11-30T15:41:27.058Z,21.50
2022-11-30T15:46:31.732Z,20.65
2022-11-30T15:51:39.431Z,24.67
2022-11-30T15:56:39.817Z,22.08
2022-11-30T16:02:02.353Z,17.20
2022-11-30T16:07:05.554Z,16.27
2022-11-30T16:12:06.324Z,15.35
2022-11-30T16:17:08.949Z,18.13
2022-11-30T16:22:11.021Z,17.23
2022-11-30T16:27:17.554Z,19.13
2022-11-30T16:32:17.421Z,16.08
2022-11-30T16:37:16.329Z,19.90
2022-11-30T16:42:16.916Z,28.50
2022-11-30T16:47:16.210Z,16.77
2022-11-30T16:52:18.957Z,19.08
2022-11-30T16:57:22.625Z,15.65
2022-11-30T17:02:25.128Z,15.70
2022-11-30T17:07:25.734Z,14.95
2022-11-30T17:12:29.226Z,16.40
2022-11-30T17:17:31.293Z,17.25
2022-11-30T17:22:31.020Z,15.93
2022-11-30T17:27:40.552Z,17.13
2022-11-30T17:32:39.970Z,17.48
2022-11-30T17:37:40.109Z,16.02
2022-11-30T17:43:00.195Z,34.05
2022-11-30T17:48:10.368Z,20.38
2022-11-30T17:53:21.271Z,17.50
2022-11-30T17:58:23.987Z,20.15
2022-11-30T18:03:24.086Z,19.85
2022-11-30T18:08:23.386Z,21.20
2022-11-30T18:13:24.382Z,37.08
2022-11-30T18:18:24.038Z,33.97
2022-11-30T18:23:23.382Z,37.15
2022-11-30T18:28:24.002Z,33.75
2022-11-30T18:33:24.477Z,29.45
2022-11-30T18:38:34.175Z,21.83
2022-11-30T18:43:40.093Z,27.35
2022-11-30T18:48:41.063Z,21.87
2022-11-30T18:53:40.140Z,23.17
2022-11-30T18:58:40.984Z,21.73
2022-11-30T19:03:40.756Z,24.40
2022-11-30T19:08:41.865Z,22.88
2022-11-30T19:13:45.005Z,20.88
2022-11-30T19:18:46.185Z,23.00
2022-11-30T19:23:46.716Z,21.27
2022-11-30T19:28:48.238Z,22.77
2022-11-30T19:33:52.627Z,27.63
2022-11-30T19:39:03.847Z,22.23
2022-11-30T19:44:05.702Z,21.50
2022-11-30T19:49:11.540Z,26.98
2022-11-30T19:54:15.812Z,20.73
2022-11-30T19:59:28.495Z,20.77
2022-11-30T20:04:32.239Z,22.98
2022-11-30T20:14:37.098Z,28.05
2022-11-30T20:19:36.208Z,21.55
2022-11-30T20:24:35.364Z,20.40
2022-11-30T20:29:36.266Z,25.23
2022-11-30T20:34:42.369Z,23.25
2022-11-30T20:39:46.027Z,23.08
2022-11-30T20:44:47.588Z,20.38
2022-11-30T20:49:50.037Z,21.25
2022-11-30T20:54:53.092Z,21.77
2022-11-30T20:59:55.853Z,25.38
2022-11-30T21:04:55.264Z,21.37
2022-11-30T21:09:55.727Z,22.58
2022-11-30T21:16:13.218Z,24.30
2022-11-30T21:28:20.613Z,26.95
2022-11-30T21:39:02.829Z,31.38
2022-11-30T21:44:06.896Z,30.17
2022-11-30T21:49:06.144Z,30.73
2022-11-30T21:54:07.611Z,35.67
2022-11-30T21:59:10.323Z,25.48
2022-11-30T22:04:10.801Z,28.50
2022-11-30T22:09:13.958Z,23.58
2022-11-30T22:14:16.826Z,19.73
2022-11-30T22:19:16.497Z,22.83
2022-11-30T22:24:15.487Z,22.77
2022-11-30T22:29:17.296Z,23.87
2022-11-30T22:34:16.247Z,26.90
2022-11-30T22:39:16.891Z,22.87
2022-11-30T22:44:18.954Z,25.45
2022-11-30T22:49:21.989Z,21.13
2022-11-30T22:54:21.140Z,22.23
2022-11-30T22:59:21.479Z,22.23
2022-11-30T23:04:23.144Z,19.40
2022-11-30T23:09:24.273Z,25.80
2022-11-30T23:14:24.734Z,20.90
2022-11-30T23:19:23.620Z,26.27
2022-11-30T23:24:22.607Z,27.30
2022-11-30T23:29:21.415Z,19.45
2022-11-30T23:34:22.889Z,20.73
2022-11-30T23:39:22.261Z,19.90
2022-11-30T23:44:21.134Z,18.60
2022-11-30T23:49:21.286Z,17.30
2022-11-30T23:54:20.352Z,17.63
2022-11-30T23:59:19.202Z,20.00
